Time;durP1;ratioP1;P1;durP2;ratioP2;P2;SDS_P1;SDS_P2;PMS_P1;PMS_P2;Temp;Humidity;BMP_temperature;BMP_pressure;BME280_temperature;BME280_humidity;BME280_pressure;Samples;Min_cycle;Max_cycle;Signal;HPM_P1;HPM_P2
2022/08/10 00:00:54;;;;;;;0.55;0.50;;;;;24.50;102633.00;;;;5048433;28;20206;-78
2022/08/10 00:03:21;;;;;;;2.03;0.47;;;;;24.50;102625.00;;;;5048644;28;20227;-78
2022/08/10 00:05:49;;;;;;;0.80;0.50;;;;;24.40;102628.00;;;;5047728;28;20216;-78
2022/08/10 00:08:16;;;;;;;1.40;0.45;;;;;24.40;102620.00;;;;5048080;28;20192;-78
2022/08/10 00:10:43;;;;;;;0.52;0.43;;;;;24.30;102624.00;;;;5048830;28;20203;-78
2022/08/10 00:13:11;;;;;;;0.40;0.40;;;;;24.30;102623.00;;;;5048314;28;20196;-78
2022/08/10 00:15:38;;;;;;;0.30;0.20;;;;;24.30;102629.00;;;;5047800;28;20683;-77
2022/08/10 00:18:06;;;;;;;2.05;0.40;;;;;24.20;102630.00;;;;5048229;28;20215;-78
2022/08/10 00:20:34;;;;;;;0.80;0.50;;;;;24.20;102632.00;;;;5048071;28;20195;-78
2022/08/10 00:23:01;;;;;;;2.45;0.52;;;;;24.20;102626.00;;;;5047441;28;20701;-78
2022/08/10 00:25:28;;;;;;;0.93;0.52;;;;;24.10;102625.00;;;;5044624;28;20183;-78
2022/08/10 00:27:55;;;;;;;0.60;0.47;;;;;24.10;102625.00;;;;5048348;28;20206;-77
2022/08/10 00:30:23;;;;;;;0.47;0.43;;;;;24.10;102625.00;;;;5047441;28;20206;-77
2022/08/10 00:32:50;;;;;;;1.92;0.40;;;;;24.10;102629.00;;;;5045215;28;20661;-77
2022/08/10 00:35:19;;;;;;;0.52;0.50;;;;;24.00;102625.00;;;;5047227;28;20662;-77
2022/08/10 00:37:46;;;;;;;0.95;0.60;;;;;24.00;102620.00;;;;5046795;28;20210;-78
2022/08/10 00:40:13;;;;;;;0.57;0.40;;;;;23.90;102621.00;;;;5047140;28;20654;-77
2022/08/10 00:42:41;;;;;;;0.90;0.52;;;;;23.90;102626.00;;;;5047779;28;20215;-77
2022/08/10 00:45:08;;;;;;;0.63;0.55;;;;;23.90;102628.00;;;;5047345;28;20210;-77
2022/08/10 00:47:37;;;;;;;0.50;0.50;;;;;23.90;102627.00;;;;5045345;28;20386;-78
2022/08/10 00:50:06;;;;;;;0.70;0.60;;;;;23.80;102626.00;;;;5046164;28;20199;-78
2022/08/10 00:52:36;;;;;;;1.05;0.55;;;;;23.80;102633.00;;;;5047115;28;20585;-77
2022/08/10 00:55:05;;;;;;;1.67;0.50;;;;;23.80;102624.00;;;;5047373;28;20226;-78
2022/08/10 00:57:33;;;;;;;0.70;0.50;;;;;23.80;102616.00;;;;5046509;28;20228;-77
2022/08/10 01:00:01;;;;;;;1.20;0.85;;;;;23.70;102615.00;;;;5047321;28;20677;-78
2022/08/10 01:02:32;;;;;;;0.90;0.68;;;;;23.70;102612.00;;;;5047336;28;20701;-77
2022/08/10 01:05:02;;;;;;;0.95;0.40;;;;;23.70;102622.00;;;;5042638;28;20231;-78
2022/08/10 01:07:50;;;;;;;0.73;0.52;;;;;23.60;102611.00;;;;5027836;28;20203;-77
2022/08/10 01:10:28;;;;;;;0.85;0.60;;;;;23.50;102613.00;;;;5034339;28;20222;-77
2022/08/10 01:13:02;;;;;;;1.15;0.70;;;;;23.50;102610.00;;;;5050783;28;20195;-77
2022/08/10 01:15:34;;;;;;;0.93;0.40;;;;;23.50;102611.00;;;;5051529;28;20200;-77
2022/08/10 01:18:05;;;;;;;0.80;0.70;;;;;23.50;102604.00;;;;5051274;28;20187;-78
2022/08/10 01:20:38;;;;;;;2.45;0.70;;;;;23.50;102603.00;;;;5051621;28;20688;-78
2022/08/10 01:23:42;;;;;;;2.45;0.88;;;;;23.40;102602.00;;;;5043145;28;20223;-78
2022/08/10 01:26:36;;;;;;;1.10;0.88;;;;;23.40;102596.00;;;;5050908;28;20195;-78
2022/08/10 01:29:34;;;;;;;0.90;0.77;;;;;23.30;102596.00;;;;5051682;28;20701;-77
2022/08/10 01:32:04;;;;;;;1.10;0.95;;;;;23.40;102602.00;;;;5051003;28;20207;-77
2022/08/10 01:34:37;;;;;;;1.58;1.20;;;;;23.30;102597.00;;;;5050869;28;20204;-77
2022/08/10 01:37:11;;;;;;;1.40;1.00;;;;;23.30;102596.00;;;;5046756;28;20196;-77
2022/08/10 01:39:43;;;;;;;1.48;1.15;;;;;23.30;102594.00;;;;5040054;28;20206;-78
2022/08/10 01:42:14;;;;;;;2.22;1.20;;;;;23.30;102595.00;;;;5038769;28;20564;-77
2022/08/10 01:44:49;;;;;;;1.38;1.10;;;;;23.20;102599.00;;;;5050502;28;20211;-78
2022/08/10 01:50:08;;;;;;;1.15;1.05;;;;;23.20;102584.00;;;;5051912;28;21029;-78
2022/08/10 01:52:37;;;;;;;1.00;0.75;;;;;23.20;102581.00;;;;5055062;28;20678;-77
2022/08/10 01:55:06;;;;;;;1.30;0.70;;;;;23.20;102582.00;;;;5050637;28;20200;-77
2022/08/10 01:57:35;;;;;;;0.85;0.60;;;;;23.20;102584.00;;;;5033489;28;20239;-78
2022/08/10 02:00:06;;;;;;;0.80;0.80;;;;;23.10;102590.00;;;;5050584;28;20218;-77
2022/08/10 02:02:36;;;;;;;0.60;0.40;;;;;23.10;102583.00;;;;5050278;28;20226;-78
2022/08/10 02:05:05;;;;;;;0.60;0.50;;;;;23.10;102585.00;;;;5050601;28;20207;-77
2022/08/10 02:07:34;;;;;;;1.30;1.08;;;;;23.10;102585.00;;;;5050482;28;20198;-78
2022/08/10 02:10:08;;;;;;;0.90;0.90;;;;;23.00;102593.00;;;;5049882;28;20192;-78
2022/08/10 02:12:37;;;;;;;1.08;0.80;;;;;23.00;102584.00;;;;5049866;28;20211;-77
2022/08/10 02:15:10;;;;;;;1.50;0.65;;;;;23.00;102588.00;;;;5050266;28;20195;-78
2022/08/10 02:17:41;;;;;;;0.60;0.60;;;;;23.00;102584.00;;;;5050329;28;20214;-78
2022/08/10 02:20:12;;;;;;;1.10;1.00;;;;;22.90;102590.00;;;;5048163;28;20204;-77
2022/08/10 02:22:43;;;;;;;0.90;0.70;;;;;22.90;102587.00;;;;5049015;28;20215;-77
2022/08/10 02:25:13;;;;;;;1.23;0.80;;;;;22.90;102590.00;;;;5050379;28;20211;-77
2022/08/10 02:27:42;;;;;;;0.98;0.88;;;;;22.90;102588.00;;;;5049910;28;20192;-78
2022/08/10 02:30:13;;;;;;;0.68;0.68;;;;;22.80;102587.00;;;;5044648;28;20683;-77
2022/08/10 02:32:42;;;;;;;2.65;0.90;;;;;22.80;102594.00;;;;5049686;28;20206;-77
2022/08/10 02:35:12;;;;;;;0.70;0.70;;;;;22.80;102592.00;;;;5049088;28;20195;-77
2022/08/10 02:37:42;;;;;;;1.30;0.98;;;;;22.80;102593.00;;;;5049298;28;20223;-78
2022/08/10 02:40:10;;;;;;;1.23;0.90;;;;;22.80;102589.00;;;;5048413;28;20192;-78
2022/08/10 02:42:45;;;;;;;2.03;0.70;;;;;22.70;102590.00;;;;5048449;28;20227;-78
2022/08/10 02:45:19;;;;;;;1.20;1.10;;;;;22.70;102591.00;;;;5049520;28;20202;-78
2022/08/10 02:47:51;;;;;;;0.90;0.82;;;;;22.70;102588.00;;;;5031531;28;20215;-77
2022/08/10 02:50:25;;;;;;;1.23;1.10;;;;;22.70;102575.00;;;;5038705;28;20195;-77
2022/08/10 02:53:02;;;;;;;0.95;0.85;;;;;22.60;102575.00;;;;5049406;28;20199;-78
2022/08/10 02:55:35;;;;;;;1.17;1.08;;;;;22.70;102575.00;;;;5048897;28;20199;-78
2022/08/10 02:58:07;;;;;;;2.97;0.88;;;;;22.60;102569.00;;;;5047568;28;20245;-78
2022/08/10 03:00:40;;;;;;;2.83;0.90;;;;;22.60;102568.00;;;;5049752;28;20616;-77
2022/08/10 03:03:11;;;;;;;1.95;0.93;;;;;22.60;102563.00;;;;5049188;28;20219;-77
2022/08/10 03:05:38;;;;;;;1.20;1.10;;;;;22.70;102569.00;;;;5046230;28;20258;-78
2022/08/10 03:08:10;;;;;;;1.27;1.17;;;;;22.60;102566.00;;;;5049025;28;20661;-78
2022/08/10 03:10:41;;;;;;;2.92;1.10;;;;;22.60;102567.00;;;;5048837;28;20557;-77
2022/08/10 03:13:10;;;;;;;3.22;1.20;;;;;22.60;102560.00;;;;5049427;28;20203;-77
2022/08/10 03:15:40;;;;;;;0.93;0.80;;;;;22.60;102568.00;;;;5049845;28;20204;-78
2022/08/10 03:18:09;;;;;;;1.08;0.98;;;;;22.60;102563.00;;;;5049142;28;20203;-78
2022/08/10 03:20:40;;;;;;;1.58;1.13;;;;;22.50;102564.00;;;;5046489;28;20203;-78
2022/08/10 03:23:17;;;;;;;1.65;1.00;;;;;22.40;102565.00;;;;5047469;28;20230;-77
2022/08/10 03:25:46;;;;;;;1.52;1.10;;;;;22.50;102562.00;;;;5049033;28;20199;-77
2022/08/10 03:28:15;;;;;;;1.10;1.00;;;;;22.50;102564.00;;;;5048517;28;20676;-77
2022/08/10 03:30:45;;;;;;;1.10;1.00;;;;;22.40;102567.00;;;;5049172;28;20334;-77
2022/08/10 03:33:13;;;;;;;1.50;1.20;;;;;22.40;102569.00;;;;5046816;28;20195;-77
2022/08/10 03:35:40;;;;;;;2.70;1.40;;;;;22.40;102556.00;;;;5048507;28;20199;-77
2022/08/10 03:38:08;;;;;;;1.42;1.08;;;;;22.40;102551.00;;;;5046100;28;20199;-78
2022/08/10 03:40:37;;;;;;;2.15;1.40;;;;;22.30;102547.00;;;;5047642;28;20215;-78
2022/08/10 03:43:06;;;;;;;1.20;1.00;;;;;22.30;102549.00;;;;5048311;28;20212;-78
2022/08/10 03:45:34;;;;;;;1.85;1.27;;;;;22.30;102543.00;;;;5048930;28;20675;-77
2022/08/10 03:48:06;;;;;;;1.88;1.30;;;;;22.30;102551.00;;;;5048078;28;20199;-77
2022/08/10 03:50:35;;;;;;;3.00;1.27;;;;;22.30;102543.00;;;;5048564;28;20991;-77
2022/08/10 03:53:03;;;;;;;1.65;1.13;;;;;22.30;102549.00;;;;5048531;28;20207;-78
2022/08/10 03:55:31;;;;;;;2.78;1.17;;;;;22.30;102538.00;;;;5046716;28;20210;-78
2022/08/10 03:57:58;;;;;;;2.63;1.48;;;;;22.30;102549.00;;;;5047441;28;20254;-78
2022/08/10 04:00:27;;;;;;;1.38;1.27;;;;;22.30;102547.00;;;;5048261;28;20196;-78
2022/08/10 04:02:56;;;;;;;2.40;1.15;;;;;22.20;102544.00;;;;5048206;28;20600;-77
2022/08/10 04:05:25;;;;;;;1.58;1.48;;;;;22.20;102544.00;;;;5047980;28;20639;-77
2022/08/10 04:07:52;;;;;;;2.67;1.63;;;;;22.20;102543.00;;;;5043578;28;20197;-77
2022/08/10 04:10:19;;;;;;;3.85;1.42;;;;;22.20;102537.00;;;;5041970;28;20211;-77
2022/08/10 04:12:47;;;;;;;2.38;1.38;;;;;22.20;102541.00;;;;5037260;28;20199;-78
2022/08/10 04:15:14;;;;;;;1.90;1.30;;;;;22.20;102540.00;;;;5047537;28;20203;-77
2022/08/10 04:17:41;;;;;;;1.65;1.50;;;;;22.20;102541.00;;;;5047738;28;20191;-77
2022/08/10 04:20:16;;;;;;;1.67;1.48;;;;;22.10;102547.00;;;;5047746;28;20199;-77
2022/08/10 04:22:46;;;;;;;3.25;1.38;;;;;22.10;102548.00;;;;5048091;28;20199;-77
2022/08/10 04:25:16;;;;;;;1.75;1.65;;;;;22.20;102546.00;;;;5048622;28;20203;-77
2022/08/10 04:27:45;;;;;;;1.60;1.40;;;;;22.20;102544.00;;;;5048126;28;20203;-77
2022/08/10 04:30:12;;;;;;;1.42;1.30;;;;;22.20;102541.00;;;;5036307;28;20542;-77
2022/08/10 04:32:43;;;;;;;1.80;1.60;;;;;22.20;102542.00;;;;5047983;28;20286;-77
2022/08/10 04:35:13;;;;;;;2.20;1.65;;;;;22.20;102550.00;;;;5047635;28;20204;-77
2022/08/10 04:37:41;;;;;;;2.70;1.73;;;;;22.20;102549.00;;;;5047521;28;20708;-77
2022/08/10 04:40:12;;;;;;;2.47;1.83;;;;;22.10;102549.00;;;;5046936;28;20203;-77
2022/08/10 04:42:40;;;;;;;1.67;1.58;;;;;22.20;102547.00;;;;5047989;28;20673;-77
2022/08/10 04:45:10;;;;;;;1.95;1.75;;;;;22.20;102549.00;;;;5047207;28;20245;-77
2022/08/10 04:47:38;;;;;;;3.33;1.70;;;;;22.20;102549.00;;;;5029665;28;20290;-77
2022/08/10 04:50:06;;;;;;;2.42;1.88;;;;;22.20;102549.00;;;;5047142;28;20192;-77
2022/08/10 04:52:34;;;;;;;2.58;1.70;;;;;22.20;102548.00;;;;5047478;28;20207;-77
2022/08/10 04:55:01;;;;;;;2.55;1.77;;;;;22.20;102551.00;;;;5047672;28;20207;-77
2022/08/10 04:57:30;;;;;;;2.90;1.45;;;;;22.20;102552.00;;;;5047755;28;20216;-77
2022/08/10 04:59:57;;;;;;;2.17;1.60;;;;;22.20;102545.00;;;;5047459;28;20207;-77
2022/08/10 05:02:24;;;;;;;1.85;1.65;;;;;22.30;102551.00;;;;5046842;28;20211;-77
2022/08/10 05:04:51;;;;;;;1.60;1.50;;;;;22.30;102551.00;;;;5036392;28;20612;-77
2022/08/10 05:07:19;;;;;;;1.75;1.60;;;;;22.30;102544.00;;;;5047754;28;20700;-77
2022/08/10 05:09:48;;;;;;;1.73;1.63;;;;;22.30;102546.00;;;;5045156;28;20706;-77
2022/08/10 05:12:15;;;;;;;2.50;1.92;;;;;22.30;102545.00;;;;5046381;28;20200;-77
2022/08/10 05:14:44;;;;;;;2.05;1.73;;;;;22.40;102542.00;;;;5047536;28;20199;-77
2022/08/10 05:17:11;;;;;;;2.17;1.90;;;;;22.40;102540.00;;;;5045818;28;20208;-77
2022/08/10 05:19:39;;;;;;;2.22;1.88;;;;;22.40;102543.00;;;;5044004;28;20209;-77
2022/08/10 05:22:07;;;;;;;2.05;1.75;;;;;22.40;102547.00;;;;5044087;28;20207;-77
2022/08/10 05:24:34;;;;;;;2.90;1.92;;;;;22.40;102544.00;;;;5046627;28;20223;-77
2022/08/10 05:27:01;;;;;;;1.75;1.63;;;;;22.50;102547.00;;;;5046296;28;20198;-78
2022/08/10 05:29:29;;;;;;;2.63;1.85;;;;;22.50;102551.00;;;;5046131;28;20203;-77
2022/08/10 05:31:59;;;;;;;2.67;2.38;;;;;22.50;102559.00;;;;5047594;28;20207;-77
2022/08/10 05:34:28;;;;;;;2.55;2.03;;;;;22.60;102553.00;;;;5046212;28;20211;-77
2022/08/10 05:36:57;;;;;;;2.95;1.92;;;;;22.60;102551.00;;;;5042106;28;20204;-77
2022/08/10 05:39:24;;;;;;;2.97;2.40;;;;;22.60;102548.00;;;;5041276;28;20681;-77
2022/08/10 05:41:53;;;;;;;2.83;2.15;;;;;22.70;102560.00;;;;5046590;28;20199;-77
2022/08/10 05:44:22;;;;;;;3.30;2.20;;;;;22.70;102561.00;;;;5046670;28;20231;-77
2022/08/10 05:46:50;;;;;;;5.30;2.10;;;;;22.80;102565.00;;;;5046742;28;20208;-77
2022/08/10 05:49:18;;;;;;;5.07;2.80;;;;;22.80;102558.00;;;;5045771;28;20215;-77
2022/08/10 05:51:46;;;;;;;4.47;2.20;;;;;22.90;102558.00;;;;5046220;28;20192;-78
2022/08/10 05:54:16;;;;;;;2.90;2.30;;;;;22.90;102564.00;;;;5038075;28;20204;-78
2022/08/10 05:56:46;;;;;;;4.20;2.33;;;;;23.00;102565.00;;;;5028164;28;20204;-78
2022/08/10 05:59:15;;;;;;;3.00;2.22;;;;;23.10;102571.00;;;;5043631;28;20230;-78
2022/08/10 06:01:45;;;;;;;3.55;2.33;;;;;23.10;102570.00;;;;5050225;28;20238;-78
2022/08/10 06:04:17;;;;;;;4.22;2.30;;;;;23.20;102577.00;;;;5049881;28;20223;-78
2022/08/10 06:06:47;;;;;;;3.20;2.20;;;;;23.20;102576.00;;;;5033228;28;20200;-78
2022/08/10 06:09:16;;;;;;;5.10;2.40;;;;;23.30;102570.00;;;;5050264;28;20200;-78
2022/08/10 06:11:44;;;;;;;4.45;2.88;;;;;23.40;102572.00;;;;5042866;28;20199;-78
2022/08/10 06:17:01;;;;;;;3.00;2.40;;;;;23.40;102569.00;;;;5050040;28;20194;-78
2022/08/10 06:19:30;;;;;;;4.68;2.45;;;;;23.50;102561.00;;;;5049608;28;20278;-79
2022/08/10 06:22:00;;;;;;;2.95;2.53;;;;;23.50;102561.00;;;;5049923;28;20196;-76
2022/08/10 06:24:29;;;;;;;2.95;2.25;;;;;23.50;102564.00;;;;5049746;28;20515;-76
2022/08/10 06:26:56;;;;;;;3.10;2.35;;;;;23.60;102561.00;;;;5030817;28;20208;-76
2022/08/10 06:29:24;;;;;;;2.90;2.03;;;;;23.70;102565.00;;;;5041762;28;20192;-76
2022/08/10 06:31:53;;;;;;;3.95;2.72;;;;;23.70;102565.00;;;;5050009;28;20203;-76
2022/08/10 06:34:26;;;;;;;2.70;2.50;;;;;23.80;102563.00;;;;5049635;28;20196;-76
2022/08/10 06:36:56;;;;;;;2.72;2.53;;;;;23.90;102566.00;;;;5049188;28;20211;-76
2022/08/10 06:39:24;;;;;;;3.70;2.83;;;;;23.90;102565.00;;;;5049274;28;20203;-76
2022/08/10 06:41:58;;;;;;;2.67;2.25;;;;;24.00;102565.00;;;;5049595;28;20215;-77
2022/08/10 06:44:32;;;;;;;2.58;2.38;;;;;24.00;102564.00;;;;5048630;28;20712;-77
2022/08/10 06:47:01;;;;;;;4.78;2.65;;;;;24.20;102560.00;;;;5040363;28;20196;-77
2022/08/10 06:49:31;;;;;;;3.17;2.60;;;;;24.30;102565.00;;;;5048979;28;20196;-77
2022/08/10 06:52:02;;;;;;;4.25;2.85;;;;;24.30;102566.00;;;;5049453;28;20676;-77
2022/08/10 06:54:33;;;;;;;2.40;1.90;;;;;24.40;102567.00;;;;5049487;28;20973;-77
2022/08/10 06:57:01;;;;;;;2.75;2.33;;;;;24.50;102570.00;;;;5049131;28;20200;-77
2022/08/10 06:59:32;;;;;;;2.40;2.20;;;;;24.60;102573.00;;;;5049471;28;20579;-77
2022/08/10 07:02:03;;;;;;;4.30;2.58;;;;;24.70;102575.00;;;;5044033;28;20209;-77
2022/08/10 07:04:34;;;;;;;4.38;2.50;;;;;24.80;102574.00;;;;5047996;28;20231;-77
2022/08/10 07:07:05;;;;;;;6.35;2.60;;;;;24.90;102577.00;;;;5049152;28;20192;-77
2022/08/10 07:09:37;;;;;;;2.97;2.40;;;;;24.90;102578.00;;;;5049014;28;20203;-77
2022/08/10 07:12:07;;;;;;;5.30;2.63;;;;;25.10;102581.00;;;;5049544;28;20566;-77
2022/08/10 07:14:36;;;;;;;2.92;2.35;;;;;25.20;102584.00;;;;5048823;28;20235;-77
2022/08/10 07:17:05;;;;;;;2.97;2.40;;;;;25.30;102583.00;;;;5049295;28;20200;-77
2022/08/10 07:19:33;;;;;;;3.03;2.53;;;;;25.40;102583.00;;;;5039551;28;20682;-77
2022/08/10 07:22:02;;;;;;;3.97;3.10;;;;;25.50;102588.00;;;;5042479;28;20211;-77
2022/08/10 07:24:31;;;;;;;3.05;2.80;;;;;25.60;102585.00;;;;5048648;28;20231;-77
2022/08/10 07:27:02;;;;;;;2.55;2.05;;;;;25.70;102579.00;;;;5048672;28;20250;-77
2022/08/10 07:29:30;;;;;;;3.10;2.58;;;;;25.80;102581.00;;;;5048100;28;20214;-77
2022/08/10 07:32:00;;;;;;;3.15;2.42;;;;;25.90;102579.00;;;;5048594;28;20227;-77
2022/08/10 07:34:29;;;;;;;4.25;2.70;;;;;26.00;102565.00;;;;5048100;28;20207;-77
2022/08/10 07:37:00;;;;;;;2.42;2.03;;;;;26.10;102572.00;;;;5044708;28;20760;-78
2022/08/10 07:39:30;;;;;;;3.08;2.20;;;;;26.20;102567.00;;;;5045060;28;20200;-77
2022/08/10 07:42:01;;;;;;;5.15;2.58;;;;;26.40;102569.00;;;;5049173;28;20239;-77
2022/08/10 07:44:29;;;;;;;5.13;2.38;;;;;26.50;102576.00;;;;5048503;28;20232;-77
2022/08/10 07:47:02;;;;;;;4.50;2.10;;;;;26.60;102574.00;;;;5048718;28;20223;-77
2022/08/10 07:49:35;;;;;;;2.85;2.60;;;;;26.70;102576.00;;;;5042096;28;20287;-77
2022/08/10 07:52:06;;;;;;;2.42;1.98;;;;;26.80;102576.00;;;;5046267;28;20199;-77
2022/08/10 07:54:38;;;;;;;3.45;2.28;;;;;26.90;102577.00;;;;5047276;28;20210;-77
2022/08/10 07:57:09;;;;;;;3.22;2.28;;;;;27.10;102574.00;;;;5047866;28;20192;-77
2022/08/10 07:59:40;;;;;;;5.32;2.25;;;;;27.20;102579.00;;;;5047085;28;20203;-77
2022/08/10 08:02:13;;;;;;;2.65;2.20;;;;;27.30;102581.00;;;;5048440;28;20211;-77
2022/08/10 08:04:41;;;;;;;4.53;2.45;;;;;27.40;102586.00;;;;5047468;28;20255;-78
2022/08/10 08:07:09;;;;;;;2.28;1.88;;;;;27.60;102586.00;;;;5048425;28;20191;-76
2022/08/10 08:09:37;;;;;;;3.05;2.00;;;;;27.70;102585.00;;;;5045986;28;20732;-77
2022/08/10 08:12:08;;;;;;;2.90;2.15;;;;;27.80;102590.00;;;;5044388;28;20669;-77
2022/08/10 08:14:38;;;;;;;2.88;2.58;;;;;27.90;102594.00;;;;5048098;28;20249;-77
2022/08/10 08:17:08;;;;;;;2.90;2.50;;;;;28.00;102589.00;;;;5048102;28;20268;-78
2022/08/10 08:19:37;;;;;;;2.63;1.95;;;;;28.20;102592.00;;;;5047551;28;20910;-78
2022/08/10 08:22:06;;;;;;;4.78;2.25;;;;;28.30;102587.00;;;;5045236;28;20199;-77
2022/08/10 08:24:36;;;;;;;2.55;1.92;;;;;28.40;102584.00;;;;5046224;28;20598;-77
2022/08/10 08:27:06;;;;;;;2.35;1.60;;;;;28.60;102575.00;;;;5048054;28;20206;-77
2022/08/10 08:29:35;;;;;;;2.58;2.25;;;;;28.70;102580.00;;;;5047845;28;20234;-77
2022/08/10 08:32:04;;;;;;;3.88;1.63;;;;;28.80;102578.00;;;;5047822;28;20670;-77
2022/08/10 08:34:32;;;;;;;4.45;1.98;;;;;29.00;102576.00;;;;5048077;28;20674;-77
2022/08/10 08:37:01;;;;;;;2.33;1.80;;;;;29.10;102577.00;;;;5047990;28;20196;-77
2022/08/10 08:39:30;;;;;;;3.25;1.70;;;;;29.20;102581.00;;;;5047259;28;20198;-78
2022/08/10 08:42:12;;;;;;;2.03;1.77;;;;;29.30;102579.00;;;;5047077;28;20758;-79
2022/08/10 08:44:57;;;;;;;1.58;1.40;;;;;29.50;102584.00;;;;5046584;28;20231;-78
2022/08/10 08:47:44;;;;;;;3.65;1.80;;;;;29.60;102585.00;;;;5047411;28;20203;-77
2022/08/10 08:50:24;;;;;;;2.13;1.40;;;;;29.80;102579.00;;;;5047219;28;20203;-78
2022/08/10 08:53:02;;;;;;;1.55;1.42;;;;;29.90;102578.00;;;;5048024;28;20202;-78
2022/08/10 08:55:41;;;;;;;3.00;1.80;;;;;30.00;102580.00;;;;5045811;28;20222;-78
2022/08/10 08:58:32;;;;;;;5.35;1.40;;;;;30.10;102573.00;;;;5044646;28;20707;-78
2022/08/10 09:01:08;;;;;;;1.52;1.20;;;;;30.30;102579.00;;;;5040204;28;20207;-78
2022/08/10 09:03:54;;;;;;;1.20;1.10;;;;;30.40;102574.00;;;;5028873;28;20199;-78
2022/08/10 09:06:45;;;;;;;1.20;1.10;;;;;30.50;102577.00;;;;5047816;28;20222;-77
2022/08/10 09:09:51;;;;;;;1.60;0.95;;;;;30.70;102575.00;;;;5047421;28;20196;-77
2022/08/10 09:12:32;;;;;;;1.40;1.25;;;;;30.90;102575.00;;;;5037602;28;20195;-77
2022/08/10 09:15:06;;;;;;;1.27;1.17;;;;;31.00;102570.00;;;;5046792;28;20284;-78
2022/08/10 09:17:46;;;;;;;1.63;1.30;;;;;31.10;102564.00;;;;5045215;28;20206;-78
2022/08/10 09:20:22;;;;;;;1.67;1.40;;;;;31.30;102566.00;;;;5043468;28;20199;-78
2022/08/10 09:22:57;;;;;;;1.20;1.08;;;;;31.40;102569.00;;;;5046449;28;20195;-78
2022/08/10 09:25:29;;;;;;;1.30;1.20;;;;;31.50;102564.00;;;;5046175;28;20231;-78
2022/08/10 09:28:02;;;;;;;1.10;1.00;;;;;31.60;102566.00;;;;5047946;28;20516;-78
2022/08/10 09:30:38;;;;;;;1.13;1.00;;;;;31.80;102566.00;;;;5046154;28;20276;-78
2022/08/10 09:33:11;;;;;;;1.00;0.90;;;;;31.90;102564.00;;;;5048639;28;20196;-78
2022/08/10 09:35:50;;;;;;;1.00;0.80;;;;;32.00;102557.00;;;;5049314;28;20203;-78
2022/08/10 09:38:26;;;;;;;2.53;1.25;;;;;32.20;102548.00;;;;5050435;28;20223;-78
2022/08/10 09:41:03;;;;;;;1.38;1.02;;;;;32.30;102543.00;;;;5047115;28;20199;-78
2022/08/10 09:43:52;;;;;;;1.20;1.10;;;;;32.40;102545.00;;;;5050739;28;20195;-77
2022/08/10 09:46:33;;;;;;;3.55;1.20;;;;;32.50;102545.00;;;;5050403;28;20720;-77
2022/08/10 09:49:11;;;;;;;1.52;0.98;;;;;32.70;102541.00;;;;5050584;28;20198;-78
2022/08/10 09:51:46;;;;;;;1.45;1.10;;;;;32.90;102547.00;;;;5048580;28;20850;-78
2022/08/10 09:54:36;;;;;;;2.83;1.00;;;;;33.00;102543.00;;;;5039165;28;20193;-78
2022/08/10 09:57:15;;;;;;;2.88;1.00;;;;;33.10;102550.00;;;;5050967;28;20199;-79
2022/08/10 09:59:53;;;;;;;1.25;1.10;;;;;33.20;102542.00;;;;5049339;28;20565;-77
2022/08/10 10:02:29;;;;;;;5.10;1.10;;;;;33.30;102531.00;;;;5049844;28;20198;-77
2022/08/10 10:05:06;;;;;;;1.58;1.00;;;;;33.40;102532.00;;;;5049758;28;20226;-78
2022/08/10 10:07:38;;;;;;;1.45;0.82;;;;;33.60;102527.00;;;;5051044;28;20199;-78
2022/08/10 10:10:12;;;;;;;2.33;0.85;;;;;33.70;102527.00;;;;5046387;28;20218;-78
2022/08/10 10:12:50;;;;;;;1.45;1.08;;;;;33.80;102525.00;;;;5050276;28;20218;-77
2022/08/10 10:15:29;;;;;;;2.55;1.30;;;;;33.90;102519.00;;;;5050393;28;20280;-77
2022/08/10 10:18:22;;;;;;;2.13;1.30;;;;;33.90;102522.00;;;;5050454;28;20298;-77
2022/08/10 10:20:58;;;;;;;1.13;0.90;;;;;34.10;102520.00;;;;5046925;28;20199;-77
2022/08/10 10:23:46;;;;;;;1.00;0.90;;;;;34.20;102512.00;;;;5049402;28;20199;-78
2022/08/10 10:26:20;;;;;;;0.68;0.63;;;;;34.30;102520.00;;;;5043293;28;20223;-78
2022/08/10 10:28:59;;;;;;;1.15;0.98;;;;;34.40;102514.00;;;;5040848;28;20226;-77
2022/08/10 10:31:31;;;;;;;1.40;1.00;;;;;34.50;102507.00;;;;5050201;28;20203;-77
2022/08/10 10:34:09;;;;;;;1.27;0.98;;;;;34.50;102505.00;;;;5049219;28;20183;-77
2022/08/10 10:36:37;;;;;;;1.42;1.10;;;;;34.70;102506.00;;;;5049326;28;20469;-78
2022/08/10 10:39:06;;;;;;;1.55;0.90;;;;;34.70;102504.00;;;;5050209;28;20210;-77
2022/08/10 10:41:40;;;;;;;0.88;0.70;;;;;34.80;102502.00;;;;5049657;28;20203;-78
2022/08/10 10:44:21;;;;;;;2.72;1.27;;;;;34.80;102489.00;;;;5034253;28;20199;-78
2022/08/10 10:46:57;;;;;;;0.90;0.80;;;;;34.90;102494.00;;;;5047335;28;20219;-78
2022/08/10 10:49:42;;;;;;;1.73;1.10;;;;;34.90;102494.00;;;;5048348;28;20210;-76
2022/08/10 10:52:19;;;;;;;1.45;1.02;;;;;34.90;102481.00;;;;5049552;28;20199;-77
2022/08/10 10:54:56;;;;;;;1.27;0.70;;;;;35.00;102487.00;;;;5050059;28;20198;-77
2022/08/10 10:57:30;;;;;;;2.20;1.00;;;;;35.00;102483.00;;;;5049452;28;20673;-77
2022/08/10 11:00:04;;;;;;;1.73;0.70;;;;;35.00;102469.00;;;;5044020;28;20204;-79
2022/08/10 11:02:43;;;;;;;1.38;1.00;;;;;35.00;102477.00;;;;5037073;28;20198;-78
2022/08/10 11:05:33;;;;;;;2.85;1.20;;;;;35.00;102473.00;;;;5048106;28;20215;-77
2022/08/10 11:08:04;;;;;;;0.80;0.63;;;;;35.10;102471.00;;;;5030063;28;20223;-77
2022/08/10 11:10:36;;;;;;;0.82;0.70;;;;;35.10;102468.00;;;;5048825;28;20211;-78
2022/08/10 11:13:19;;;;;;;1.45;1.02;;;;;35.10;102467.00;;;;5050881;28;20195;-77
2022/08/10 11:15:57;;;;;;;1.80;1.00;;;;;35.10;102462.00;;;;5046575;28;20198;-78
2022/08/10 11:18:36;;;;;;;0.77;0.77;;;;;35.10;102457.00;;;;5040277;28;20210;-77
2022/08/10 11:21:39;;;;;;;1.30;1.00;;;;;35.00;102458.00;;;;5048886;28;20669;-76
2022/08/10 11:24:16;;;;;;;1.20;0.70;;;;;35.10;102462.00;;;;5048690;28;20205;-78
2022/08/10 11:26:48;;;;;;;1.00;0.90;;;;;35.20;102456.00;;;;5048862;28;20229;-77
2022/08/10 11:29:22;;;;;;;2.60;1.00;;;;;35.20;102456.00;;;;5048986;28;20199;-77
2022/08/10 11:31:57;;;;;;;1.60;1.13;;;;;35.10;102450.00;;;;5048810;28;20218;-77
2022/08/10 11:34:35;;;;;;;1.48;0.80;;;;;35.10;102459.00;;;;5036291;28;20203;-77
2022/08/10 11:37:15;;;;;;;6.55;1.45;;;;;35.10;102457.00;;;;5048181;28;20206;-77
2022/08/10 11:39:51;;;;;;;1.48;1.00;;;;;35.20;102460.00;;;;5048904;28;20763;-78
2022/08/10 11:42:29;;;;;;;1.08;0.80;;;;;35.30;102452.00;;;;5049461;28;20190;-77
2022/08/10 11:45:02;;;;;;;0.82;0.57;;;;;35.30;102454.00;;;;5049117;28;20214;-77
2022/08/10 11:47:37;;;;;;;1.33;0.80;;;;;35.20;102450.00;;;;5049355;28;20207;-77
2022/08/10 11:50:12;;;;;;;1.08;0.75;;;;;35.30;102453.00;;;;5048009;28;20202;-77
2022/08/10 11:52:51;;;;;;;1.15;0.80;;;;;35.20;102450.00;;;;5029405;28;20218;-78
2022/08/10 11:55:21;;;;;;;1.10;0.80;;;;;35.30;102437.00;;;;5046928;28;20204;-77
2022/08/10 11:57:52;;;;;;;0.85;0.60;;;;;35.30;102440.00;;;;5047939;28;20230;-77
2022/08/10 12:00:19;;;;;;;1.48;0.90;;;;;35.30;102431.00;;;;5049042;28;20195;-78
2022/08/10 12:02:50;;;;;;;1.38;1.00;;;;;35.30;102436.00;;;;5049758;28;20222;-77
2022/08/10 12:05:19;;;;;;;1.45;0.85;;;;;35.30;102437.00;;;;5048388;28;20219;-77
2022/08/10 12:07:51;;;;;;;3.65;0.77;;;;;35.30;102433.00;;;;5046062;28;20212;-77
2022/08/10 12:10:21;;;;;;;1.10;0.68;;;;;35.30;102421.00;;;;5047463;28;20203;-78
2022/08/10 12:12:54;;;;;;;1.10;0.80;;;;;35.30;102428.00;;;;5047933;28;20664;-77
2022/08/10 12:15:26;;;;;;;1.77;0.88;;;;;35.40;102415.00;;;;5048304;28;20203;-77
2022/08/10 12:17:58;;;;;;;2.03;0.90;;;;;35.40;102423.00;;;;5048613;28;20195;-77
2022/08/10 12:20:29;;;;;;;1.48;1.02;;;;;35.40;102419.00;;;;5030120;28;20200;-77
2022/08/10 12:23:01;;;;;;;1.10;1.00;;;;;35.40;102420.00;;;;5038677;28;20285;-77
2022/08/10 12:25:35;;;;;;;3.38;1.08;;;;;35.40;102420.00;;;;5038935;28;20207;-77
2022/08/10 12:28:10;;;;;;;1.23;0.80;;;;;35.40;102413.00;;;;5028650;28;20194;-78
2022/08/10 12:30:46;;;;;;;0.65;0.63;;;;;35.40;102418.00;;;;5043731;28;20194;-78
2022/08/10 12:33:20;;;;;;;2.28;1.02;;;;;35.40;102410.00;;;;5030676;28;20257;-78
2022/08/10 12:35:56;;;;;;;0.95;0.82;;;;;35.50;102415.00;;;;5047762;28;20225;-77
2022/08/10 12:38:36;;;;;;;0.82;0.80;;;;;35.50;102411.00;;;;5033371;28;20194;-77